Barro, Brazil
Current Conditions -  °F | °C
As of 9:00 PM on Thursday 27 Nov 2014 (Local Time) from SBJU Reporting Station
Clear Clear  
Wind Chill: 86°   Ceiling: Unl
Heat Index: 89°   Visibility: 6mi
Dew Point: 68°   Wind: 0mph
Humidity: 55%   Direction: NA
Pressure: 29.97"   Gusts: NA
Location:  7.18°S, 38.78°W
Report Text: SBJU 280000Z 00000KT CAVOK 30/20 Q1015
Loading
Personal Weather Stations






























Interactive Weather Map New forecast layout! Learn more

10-Day Weather Forecast

Advertisements
Track Severe Weather on mobile